»·PEaware :: AAL343 KSFO-KBOI

AAL343 :: KSFO-KBOI

FLIGHT INFORMATION

Flight Status: Arrived
Operator:
American Airlines
More flights by this operator :: More flights under this callsign
Pilot: James W. (12414)
Aircraft: BOEING 757-200
(B752)
More flights by this aircraft type
Origin: KSFO San Francisco Intl
United States
Destination: KBOI Boise Air Terminal/Gowen
United States
More flights between these airports :: More routes between these airports
Route: +TRUKN2 ORRCA FMG PRNCS SADYL3
File this flight plan on PilotEdge
Remarks:
Altitude:
(Current/Filed)
350ft
Speed:
(Current/Filed)
500kts
Departed: 25-Apr-18 04:12 PM
Arrived: 25-Apr-18 05:29 PM
Distance/Time
Traveled:
454nm/1:17
Distance/Time
To Go:
Arrived

Flight Plot

Page will automatically refresh every two minutes.

Flight plan parsing failed; only flown route is shown


Map Options




Map Legend


Flown Route
Filed Route
Departure Airport
Arrival Airport
Navaid (VOR, NDB)
Fix

Horizontal Profiles

Position Reports

Time Latitude Longitude Heading Altitude Ground
Speed
25-Apr-18 15:34 37.618357 -122.382033 139 25ft 0kts
25-Apr-18 15:35 37.618357 -122.382033 139 25ft 0kts
25-Apr-18 15:36 37.618357 -122.382033 139 25ft 0kts
25-Apr-18 15:37 37.618357 -122.382033 139 25ft 0kts
25-Apr-18 15:38 37.618357 -122.382033 139 25ft 0kts
25-Apr-18 15:39 37.618357 -122.382033 139 25ft 0kts
25-Apr-18 15:40 37.618357 -122.382033 139 25ft 0kts
25-Apr-18 15:41 37.618357 -122.382033 139 25ft 0kts
25-Apr-18 15:42 37.618357 -122.382033 139 24ft 0kts
25-Apr-18 15:43 37.618357 -122.382033 139 24ft 0kts
25-Apr-18 15:44 37.618357 -122.382033 139 24ft 0kts
25-Apr-18 15:45 37.618357 -122.382033 139 24ft 0kts
25-Apr-18 15:46 37.618357 -122.382033 139 24ft 0kts
25-Apr-18 15:47 37.618357 -122.382033 139 24ft 0kts
25-Apr-18 15:48 37.618357 -122.382033 139 24ft 0kts
25-Apr-18 15:49 37.618357 -122.382033 139 24ft 0kts
25-Apr-18 15:50 37.618357 -122.382033 139 24ft 0kts
25-Apr-18 15:51 37.618357 -122.382033 139 24ft 0kts
25-Apr-18 15:52 37.618357 -122.382033 139 24ft 0kts
25-Apr-18 15:53 37.618357 -122.382033 139 24ft 0kts
25-Apr-18 15:54 37.618357 -122.382033 139 24ft 0kts
25-Apr-18 15:55 37.618357 -122.382033 139 24ft 0kts
25-Apr-18 15:56 37.618357 -122.382033 139 24ft 0kts
25-Apr-18 15:57 37.618357 -122.382033 139 24ft 0kts
25-Apr-18 15:58 37.618357 -122.382033 139 24ft 0kts
25-Apr-18 15:59 37.618357 -122.382033 139 24ft 0kts
25-Apr-18 16:00 37.618360 -122.382036 139 24ft 0kts
25-Apr-18 16:01 37.618645 -122.382525 66 24ft 1kts
25-Apr-18 16:02 37.618532 -122.382669 27 24ft 0kts
25-Apr-18 16:03 37.618532 -122.382669 27 24ft 0kts
25-Apr-18 16:04 37.618891 -122.382436 26 24ft 0kts
25-Apr-18 16:05 37.618930 -122.382411 26 24ft 0kts
25-Apr-18 16:06 37.618694 -122.379661 117 24ft 15kts
25-Apr-18 16:07 37.616773 -122.374071 118 24ft 23kts
25-Apr-18 16:08 37.613403 -122.367284 118 24ft 23kts
25-Apr-18 16:09 37.610697 -122.360664 116 24ft 9kts
25-Apr-18 16:10 37.611828 -122.358918 338 24ft 11kts
25-Apr-18 16:11 37.618730 -122.375075 296 56ft 174kts
25-Apr-18 16:12 37.661036 -122.400419 38 2486ft 225kts
25-Apr-18 16:13 37.683305 -122.324826 70 5032ft 241kts
25-Apr-18 16:14 37.707686 -122.245614 69 7509ft 250kts
25-Apr-18 16:15 37.753825 -122.182388 37 10034ft 260kts
25-Apr-18 16:16 37.812447 -122.128951 39 12537ft 262kts
25-Apr-18 16:17 37.869999 -122.076797 39 14980ft 247kts
25-Apr-18 16:18 37.921387 -122.030170 39 16944ft 222kts
25-Apr-18 16:19 37.978114 -121.978542 38 17527ft 272kts
25-Apr-18 16:20 38.048236 -121.914640 37 17666ft 352kts
25-Apr-18 16:21 38.132717 -121.837496 37 17740ft 426kts
25-Apr-18 16:22 38.231020 -121.747482 37 19028ft 441kts
25-Apr-18 16:23 38.329650 -121.656809 37 20281ft 450kts
25-Apr-18 16:24 38.431375 -121.561506 43 22078ft 462kts
25-Apr-18 16:25 38.512618 -121.434165 54 23893ft 471kts
25-Apr-18 16:26 38.586589 -121.308704 55 25577ft 479kts
25-Apr-18 16:27 38.665004 -121.174762 55 27342ft 482kts
25-Apr-18 16:28 38.744386 -121.038533 54 29127ft 482kts
25-Apr-18 16:29 38.823813 -120.901659 53 30921ft 479kts
25-Apr-18 16:30 38.902083 -120.766212 53 32713ft 474kts
25-Apr-18 16:31 38.979349 -120.631944 53 34514ft 467kts
25-Apr-18 16:32 39.056945 -120.496528 53 35254ft 483kts
25-Apr-18 16:33 39.134001 -120.361491 53 35245ft 494kts
25-Apr-18 16:34 39.211608 -120.224908 54 35236ft 480kts
25-Apr-18 16:35 39.290050 -120.086260 54 35237ft 480kts
25-Apr-18 16:36 39.368329 -119.947299 54 35224ft 480kts
25-Apr-18 16:37 39.445680 -119.809389 54 35165ft 480kts
25-Apr-18 16:38 39.524328 -119.676660 42 35154ft 480kts
25-Apr-18 16:39 39.638416 -119.591607 24 35155ft 479kts
25-Apr-18 16:40 39.758302 -119.518852 24 35163ft 479kts
25-Apr-18 16:41 39.878182 -119.445954 24 35176ft 479kts
25-Apr-18 16:42 39.998391 -119.372590 23 35183ft 479kts
25-Apr-18 16:43 40.113869 -119.301853 24 35162ft 479kts
25-Apr-18 16:44 40.234050 -119.227942 24 35145ft 479kts
25-Apr-18 16:45 40.354311 -119.153692 24 35145ft 479kts
25-Apr-18 16:46 40.474076 -119.079457 24 35146ft 479kts
25-Apr-18 16:47 40.594506 -119.004505 24 35146ft 479kts
25-Apr-18 16:48 40.714162 -118.929737 24 35147ft 479kts
25-Apr-18 16:49 40.833874 -118.854636 23 35147ft 479kts
25-Apr-18 16:50 40.953748 -118.779137 23 35149ft 477kts
25-Apr-18 16:51 41.073220 -118.703575 22 35175ft 475kts
25-Apr-18 16:52 41.186501 -118.631668 22 35184ft 474kts
25-Apr-18 16:53 41.303870 -118.556865 22 35185ft 473kts
25-Apr-18 16:54 41.422122 -118.481189 22 35185ft 473kts
25-Apr-18 16:55 41.540356 -118.405213 22 35185ft 473kts
25-Apr-18 16:56 41.654144 -118.331803 23 35179ft 474kts
25-Apr-18 16:57 41.772457 -118.255167 23 35172ft 474kts
25-Apr-18 16:58 41.890167 -118.178607 23 35172ft 474kts
25-Apr-18 16:59 42.008351 -118.101420 23 35173ft 474kts
25-Apr-18 17:00 42.115188 -118.031358 23 34031ft 470kts
25-Apr-18 17:01 42.208775 -117.969765 23 32479ft 453kts
25-Apr-18 17:02 42.320923 -117.895724 23 30587ft 451kts
25-Apr-18 17:03 42.430944 -117.818199 34 28726ft 457kts
25-Apr-18 17:04 42.516853 -117.692070 48 26860ft 455kts
25-Apr-18 17:05 42.595672 -117.562307 48 24968ft 441kts
25-Apr-18 17:06 42.671804 -117.435660 48 23074ft 427kts
25-Apr-18 17:07 42.743857 -117.315212 49 21245ft 414kts
25-Apr-18 17:08 42.815894 -117.193788 49 20053ft 413kts
25-Apr-18 17:09 42.886092 -117.074441 49 17857ft 400kts
25-Apr-18 17:10 42.954438 -116.957768 49 15653ft 390kts
25-Apr-18 17:11 43.020441 -116.844650 48 13969ft 365kts
25-Apr-18 17:12 43.077462 -116.747558 47 12917ft 288kts
25-Apr-18 17:13 43.121852 -116.672428 47 11457ft 250kts
25-Apr-18 17:14 43.165048 -116.599137 47 10101ft 243kts
25-Apr-18 17:15 43.207051 -116.530795 45 9319ft 234kts
25-Apr-18 17:16 43.249245 -116.464311 46 8027ft 229kts
25-Apr-18 17:17 43.290643 -116.398914 46 6732ft 225kts
25-Apr-18 17:18 43.329716 -116.337029 47 5987ft 219kts
25-Apr-18 17:19 43.367857 -116.271698 54 5992ft 220kts
25-Apr-18 17:20 43.401239 -116.201129 54 5996ft 220kts
25-Apr-18 17:21 43.434310 -116.129713 54 5999ft 221kts
25-Apr-18 17:22 43.456760 -116.052920 89 5210ft 214kts
25-Apr-18 17:23 43.492189 -116.027655 325 4803ft 184kts
25-Apr-18 17:24 43.516755 -116.081238 298 4782ft 136kts
25-Apr-18 17:25 43.532547 -116.127712 296 4350ft 136kts
25-Apr-18 17:26 43.548597 -116.173595 297 3359ft 133kts
25-Apr-18 17:27 43.563446 -116.216936 296 2883ft 75kts
25-Apr-18 17:28 43.566262 -116.221238 69 2882ft 14kts

Navigation Log

Ident Type
Flight plan parsing failed, navigation log unavailable